Time;durP1;ratioP1;P1;durP2;ratioP2;P2;SDS_P1;SDS_P2;PMS_P1;PMS_P2;Temp;Humidity;BMP_temperature;BMP_pressure;BME280_temperature;BME280_humidity;BME280_pressure;Samples;Min_cycle;Max_cycle;Signal;HPM_P1;HPM_P2
2021/05/01 00:01:53;;;;;;;46.10;32.83;;;7.80;1.00;;;;;;5089347;27;20189;-74
2021/05/01 00:04:19;;;;;;;43.40;30.27;;;7.70;1.00;;;;;;5103863;27;20326;-73
2021/05/01 00:06:44;;;;;;;45.67;31.37;;;7.80;1.00;;;;;;5086285;27;20191;-72
2021/05/01 00:09:10;;;;;;;44.57;33.50;;;7.80;1.00;;;;;;5100762;27;20205;-72
2021/05/01 00:11:36;;;;;;;48.20;34.40;;;7.70;1.00;;;;;;5104433;27;20272;-72
2021/05/01 00:14:02;;;;;;;43.03;30.67;;;7.50;1.00;;;;;;5106041;27;20183;-72
2021/05/01 00:16:28;;;;;;;46.33;32.90;;;7.50;1.00;;;;;;5101842;27;20430;-72
2021/05/01 00:18:54;;;;;;;46.23;32.23;;;7.40;1.00;;;;;;5104637;27;20980;-72
2021/05/01 00:21:20;;;;;;;52.50;34.60;;;7.40;1.00;;;;;;5103181;27;20204;-72
2021/05/01 00:23:46;;;;;;;49.33;34.63;;;7.40;1.00;;;;;;5104389;27;20438;-72
2021/05/01 00:26:12;;;;;;;49.60;32.77;;;7.30;1.00;;;;;;5102677;27;25807;-72
2021/05/01 00:28:38;;;;;;;47.27;33.47;;;7.30;1.00;;;;;;5102063;27;20208;-72
2021/05/01 00:31:04;;;;;;;48.30;32.73;;;7.30;1.00;;;;;;5099037;27;20175;-72
2021/05/01 00:33:30;;;;;;;50.30;33.57;;;7.30;1.00;;;;;;5097513;27;20456;-72
2021/05/01 00:35:56;;;;;;;48.13;33.80;;;7.50;1.00;;;;;;5102390;27;20450;-72
2021/05/01 00:38:22;;;;;;;45.27;32.60;;;7.50;1.00;;;;;;5084993;27;20193;-72
2021/05/01 00:40:47;;;;;;;46.87;32.77;;;7.50;1.00;;;;;;5102644;27;20238;-72
2021/05/01 00:43:13;;;;;;;49.63;34.87;;;7.50;1.00;;;;;;5098567;27;20188;-72
2021/05/01 00:45:39;;;;;;;52.37;34.87;;;7.50;1.00;;;;;;5076413;27;20203;-72
2021/05/01 00:48:05;;;;;;;52.70;36.00;;;7.50;1.00;;;;;;5101262;27;20263;-72
2021/05/01 00:50:31;;;;;;;51.03;36.57;;;7.50;1.00;;;;;;5099627;27;20201;-72
2021/05/01 00:52:57;;;;;;;54.97;36.37;;;7.50;1.00;;;;;;5101497;27;25383;-72
2021/05/01 00:55:23;;;;;;;54.33;35.20;;;7.60;1.00;;;;;;5102229;27;22861;-72
2021/05/01 00:57:49;;;;;;;45.30;33.07;;;7.50;1.00;;;;;;5103225;27;20219;-73
2021/05/01 01:00:37;;;;;;;52.80;33.73;;;7.50;1.00;;;;;;5107632;27;21051;-72
2021/05/01 01:03:03;;;;;;;50.17;35.17;;;7.50;1.00;;;;;;5100131;27;20189;-71
2021/05/01 01:05:28;;;;;;;50.17;35.50;;;7.60;1.00;;;;;;5100962;27;20488;-72
2021/05/01 01:07:54;;;;;;;52.43;35.63;;;7.40;1.00;;;;;;5106712;27;20212;-73
2021/05/01 01:10:20;;;;;;;52.33;35.40;;;7.20;1.00;;;;;;5101638;27;20211;-72
2021/05/01 01:12:46;;;;;;;58.03;37.50;;;7.20;22.80;;;;;;5097904;27;20191;-72
2021/05/01 01:15:25;;;;;;;51.17;35.00;;;7.20;5.90;;;;;;5102475;27;20186;-72
2021/05/01 01:17:50;;;;;;;48.30;34.10;;;7.10;62.40;;;;;;5099927;27;20223;-72
2021/05/01 01:20:16;;;;;;;48.37;31.80;;;7.00;58.80;;;;;;5103329;27;20486;-72
2021/05/01 01:22:42;;;;;;;46.97;31.20;;;6.90;99.90;;;;;;5102007;27;20254;-72
2021/05/01 01:25:08;;;;;;;51.80;34.80;;;7.00;99.90;;;;;;5103119;27;20206;-72
2021/05/01 01:27:34;;;;;;;41.33;30.53;;;7.10;99.90;;;;;;5102430;27;20271;-72
2021/05/01 01:30:03;;;;;;;50.07;32.17;;;7.10;71.50;;;;;;5100684;27;20426;-72
2021/05/01 01:32:29;;;;;;;47.70;32.77;;;7.10;82.90;;;;;;5099692;27;20472;-73
2021/05/01 01:34:54;;;;;;;52.00;33.70;;;7.10;29.90;;;;;;5102097;27;20470;-72
2021/05/01 01:37:20;;;;;;;46.33;31.30;;;7.00;42.60;;;;;;5083976;27;20206;-72
2021/05/01 01:39:46;;;;;;;46.77;32.90;;;7.00;99.90;;;;;;5103350;27;20900;-72
2021/05/01 01:42:11;;;;;;;43.03;31.20;;;6.90;99.90;;;;;;5106849;27;20205;-73
2021/05/01 01:44:37;;;;;;;48.17;31.57;;;6.90;99.90;;;;;;5098626;27;20188;-72
2021/05/01 01:47:03;;;;;;;50.00;34.17;;;7.00;92.60;;;;;;5100720;27;20222;-73
2021/05/01 01:49:29;;;;;;;54.13;31.63;;;7.00;55.90;;;;;;5094499;27;20212;-73
2021/05/01 01:51:54;;;;;;;46.67;33.37;;;7.10;31.10;;;;;;5098817;27;20850;-74
2021/05/01 01:54:20;;;;;;;52.70;35.83;;;7.10;26.90;;;;;;5077262;27;20190;-73
2021/05/01 01:56:46;;;;;;;55.43;34.83;;;7.20;19.50;;;;;;5096460;27;20188;-73
2021/05/01 01:59:11;;;;;;;61.17;37.97;;;7.10;3.30;;;;;;5099608;27;20201;-73
2021/05/01 02:01:37;;;;;;;53.53;35.23;;;7.10;10.40;;;;;;5099160;27;20555;-73
2021/05/01 02:04:03;;;;;;;49.57;35.00;;;7.10;14.00;;;;;;5098390;27;20192;-73
2021/05/01 02:06:29;;;;;;;53.33;36.10;;;7.10;12.90;;;;;;5095755;27;20459;-73
2021/05/01 02:08:54;;;;;;;66.73;36.23;;;7.10;8.80;;;;;;5099995;27;20475;-73
2021/05/01 02:11:20;;;;;;;58.27;37.70;;;7.10;33.90;;;;;;5099596;27;20241;-73
2021/05/01 02:13:46;;;;;;;53.37;35.60;;;7.10;98.80;;;;;;5100056;27;20585;-73
2021/05/01 02:16:12;;;;;;;62.97;40.03;;;7.10;99.90;;;;;;5095448;27;20186;-73
2021/05/01 02:18:38;;;;;;;57.63;37.10;;;7.10;99.90;;;;;;5102422;27;20179;-73
2021/05/01 02:21:04;;;;;;;58.20;38.70;;;7.20;99.90;;;;;;5082095;27;20455;-74
2021/05/01 02:23:29;;;;;;;59.87;39.67;;;7.20;99.90;;;;;;5097913;27;20233;-73
2021/05/01 02:25:55;;;;;;;58.20;38.23;;;7.20;99.90;;;;;;5100632;27;21119;-73
2021/05/01 02:28:21;;;;;;;60.60;38.63;;;7.20;99.90;;;;;;5101980;27;20205;-73
2021/05/01 02:30:47;;;;;;;62.20;41.27;;;7.20;99.90;;;;;;5100097;27;24680;-73
2021/05/01 02:33:13;;;;;;;64.43;40.33;;;7.30;99.90;;;;;;5100556;27;20189;-72
2021/05/01 02:35:40;;;;;;;57.90;38.97;;;7.30;99.90;;;;;;5097641;27;20539;-73
2021/05/01 02:38:07;;;;;;;59.00;39.77;;;7.30;99.90;;;;;;5096622;27;20529;-72
2021/05/01 02:40:32;;;;;;;70.63;42.37;;;7.30;99.90;;;;;;5093850;27;23287;-73
2021/05/01 02:43:06;;;;;;;67.10;41.57;;;7.20;99.90;;;;;;5097910;27;20441;-73
2021/05/01 02:45:31;;;;;;;62.77;40.70;;;7.30;99.90;;;;;;5090020;27;20518;-73
2021/05/01 02:47:58;;;;;;;61.90;41.80;;;7.30;99.90;;;;;;5094631;27;20473;-73
2021/05/01 02:50:23;;;;;;;67.13;39.87;;;7.30;99.90;;;;;;5101484;27;20288;-73
2021/05/01 02:52:49;;;;;;;65.80;39.30;;;7.30;99.90;;;;;;5094880;27;20448;-73
2021/05/01 02:55:15;;;;;;;60.97;38.47;;;7.30;99.90;;;;;;5097238;27;20193;-72
2021/05/01 02:57:41;;;;;;;73.47;42.53;;;7.30;99.90;;;;;;5102651;27;20196;-73
2021/05/01 03:00:12;;;;;;;67.67;39.87;;;7.20;99.90;;;;;;5099594;27;20176;-73
2021/05/01 03:02:38;;;;;;;71.50;43.47;;;7.30;99.90;;;;;;5096258;27;20437;-74
2021/05/01 03:05:05;;;;;;;66.83;40.10;;;7.20;99.90;;;;;;5100719;27;20437;-73
2021/05/01 03:07:31;;;;;;;66.50;41.53;;;7.30;99.90;;;;;;5093813;27;20646;-74
2021/05/01 03:09:56;;;;;;;72.80;42.90;;;7.20;99.90;;;;;;5094304;27;20447;-73
2021/05/01 03:12:22;;;;;;;70.50;40.53;;;7.30;99.90;;;;;;5096363;27;20539;-74
2021/05/01 03:14:48;;;;;;;64.57;41.03;;;7.30;99.90;;;;;;5077281;27;20193;-73
2021/05/01 03:17:14;;;;;;;68.67;41.83;;;7.30;99.90;;;;;;5095656;27;20181;-73
2021/05/01 03:19:40;;;;;;;71.70;40.80;;;7.30;99.90;;;;;;5095635;27;20191;-73
2021/05/01 03:22:06;;;;;;;61.97;40.77;;;7.30;99.90;;;;;;5092215;27;20455;-73
2021/05/01 03:24:33;;;;;;;69.60;40.20;;;7.30;99.90;;;;;;5087339;27;20271;-73
2021/05/01 03:26:59;;;;;;;68.60;42.80;;;7.30;99.90;;;;;;5099931;27;20446;-73
2021/05/01 03:29:24;;;;;;;74.67;42.27;;;7.30;99.90;;;;;;5105557;27;20469;-73
2021/05/01 03:31:50;;;;;;;71.90;42.37;;;7.30;99.90;;;;;;5091260;27;20267;-73
2021/05/01 03:34:16;;;;;;;71.63;42.30;;;7.30;99.90;;;;;;5091866;27;20217;-73
2021/05/01 03:36:42;;;;;;;68.83;42.80;;;7.40;99.90;;;;;;5096123;27;20192;-73
2021/05/01 03:39:07;;;;;;;60.87;39.57;;;7.40;99.90;;;;;;5106655;27;20208;-73
2021/05/01 03:41:33;;;;;;;70.57;42.80;;;7.40;99.90;;;;;;5116567;27;20736;-73
2021/05/01 03:43:59;;;;;;;65.47;39.73;;;7.30;99.90;;;;;;5117316;27;20646;-73
2021/05/01 03:46:25;;;;;;;76.70;43.13;;;7.30;99.90;;;;;;5112765;27;20578;-73
2021/05/01 03:48:50;;;;;;;70.77;42.63;;;7.30;99.90;;;;;;5112779;27;20235;-72
2021/05/01 03:51:16;;;;;;;66.80;40.40;;;7.30;99.90;;;;;;5107864;27;20534;-73
2021/05/01 03:53:42;;;;;;;66.07;41.83;;;7.30;99.90;;;;;;5084634;27;20204;-72
2021/05/01 03:56:07;;;;;;;72.13;42.43;;;7.30;99.90;;;;;;5099800;27;20174;-72
2021/05/01 03:58:33;;;;;;;66.63;41.27;;;7.30;99.90;;;;;;5104873;27;20264;-72
2021/05/01 04:00:59;;;;;;;72.90;41.33;;;7.30;99.90;;;;;;5101401;27;20264;-72
2021/05/01 04:03:24;;;;;;;79.47;44.40;;;7.30;99.90;;;;;;5103440;27;20329;-73
2021/05/01 04:05:50;;;;;;;85.37;46.70;;;7.30;99.90;;;;;;5102247;27;20686;-72
2021/05/01 04:08:16;;;;;;;98.50;49.20;;;7.20;99.90;;;;;;5097730;27;20685;-72
2021/05/01 04:10:41;;;;;;;93.43;46.37;;;7.10;99.90;;;;;;5096066;27;20208;-73
2021/05/01 04:13:07;;;;;;;96.47;49.77;;;7.10;99.90;;;;;;5090762;27;20252;-72
2021/05/01 04:15:33;;;;;;;91.80;48.83;;;7.10;99.90;;;;;;5095560;27;21818;-72
2021/05/01 04:17:58;;;;;;;85.27;45.93;;;7.10;99.90;;;;;;5093437;27;20185;-73
2021/05/01 04:20:24;;;;;;;90.30;47.70;;;7.10;99.90;;;;;;5100200;27;20292;-72
2021/05/01 04:22:50;;;;;;;96.43;48.37;;;7.20;99.90;;;;;;5110232;27;20839;-72
2021/05/01 04:25:16;;;;;;;87.43;47.63;;;7.20;99.90;;;;;;5093851;27;20256;-72
2021/05/01 04:27:41;;;;;;;86.13;47.30;;;7.10;99.90;;;;;;5094411;27;20219;-72
2021/05/01 04:30:08;;;;;;;77.40;43.77;;;7.10;99.90;;;;;;5103073;27;20195;-74
2021/05/01 04:32:34;;;;;;;86.97;45.90;;;7.20;99.90;;;;;;5093969;27;20575;-72
2021/05/01 04:35:01;;;;;;;91.77;46.13;;;7.20;98.60;;;;;;5099495;27;20433;-72
2021/05/01 04:37:27;;;;;;;86.43;44.80;;;7.20;99.90;;;;;;5098715;27;20446;-72
2021/05/01 04:39:53;;;;;;;88.13;46.53;;;7.20;99.90;;;;;;5102197;27;20498;-73
2021/05/01 04:42:18;;;;;;;87.90;46.73;;;7.20;82.20;;;;;;5094806;27;20189;-73
2021/05/01 04:44:44;;;;;;;83.93;45.37;;;7.10;60.50;;;;;;5097231;27;20191;-73
2021/05/01 04:47:10;;;;;;;80.30;46.17;;;7.10;50.40;;;;;;5096406;27;20188;-72
2021/05/01 04:49:36;;;;;;;79.90;44.37;;;7.10;45.30;;;;;;5088137;27;20207;-73
2021/05/01 04:52:02;;;;;;;78.50;43.13;;;7.10;52.10;;;;;;5108926;27;20468;-73
2021/05/01 04:54:28;;;;;;;86.20;46.40;;;7.10;39.10;;;;;;5089607;27;20190;-72
2021/05/01 04:56:53;;;;;;;80.93;43.70;;;7.10;39.80;;;;;;5095382;27;20461;-73
2021/05/01 04:59:19;;;;;;;81.67;46.20;;;7.10;28.40;;;;;;5107418;27;20268;-73
2021/05/01 05:01:45;;;;;;;86.87;43.63;;;7.20;37.30;;;;;;5098601;27;20180;-72
2021/05/01 05:04:11;;;;;;;83.40;44.10;;;7.20;13.50;;;;;;5108153;27;21001;-72
2021/05/01 05:06:36;;;;;;;75.10;40.10;;;7.20;11.00;;;;;;5104764;27;20208;-73
2021/05/01 05:09:02;;;;;;;82.10;41.73;;;7.20;15.00;;;;;;5102018;27;20277;-72
2021/05/01 05:11:28;;;;;;;80.30;42.67;;;7.20;1.00;;;;;;5107555;27;20202;-72
2021/05/01 05:13:54;;;;;;;91.67;43.07;;;7.10;1.00;;;;;;5104215;27;20308;-72
2021/05/01 05:16:21;;;;;;;75.37;40.83;;;7.20;1.00;;;;;;5100916;27;20447;-72
2021/05/01 05:18:46;;;;;;;82.30;41.07;;;7.20;1.00;;;;;;5103686;27;20180;-73
2021/05/01 05:21:12;;;;;;;87.80;41.83;;;7.20;1.00;;;;;;5103828;27;20878;-73
2021/05/01 05:23:38;;;;;;;77.67;40.47;;;7.20;1.00;;;;;;5097562;27;20473;-73
2021/05/01 05:26:03;;;;;;;78.20;42.23;;;7.20;1.00;;;;;;5100012;27;20192;-73
2021/05/01 05:28:29;;;;;;;74.30;39.47;;;7.20;1.00;;;;;;5100023;27;20222;-72
2021/05/01 05:30:55;;;;;;;60.13;36.77;;;7.10;1.00;;;;;;5100493;27;20194;-72
2021/05/01 05:33:20;;;;;;;54.33;34.80;;;7.10;1.00;;;;;;5097971;27;20181;-72
2021/05/01 05:35:46;;;;;;;52.40;33.47;;;6.90;1.00;;;;;;5097171;27;20196;-73
2021/05/01 05:38:12;;;;;;;53.27;33.50;;;7.00;1.00;;;;;;5104604;27;20181;-73
2021/05/01 05:40:41;;;;;;;53.77;34.93;;;7.00;1.00;;;;;;5107922;27;20209;-72
2021/05/01 05:43:07;;;;;;;52.03;33.00;;;7.10;1.00;;;;;;5082587;27;20236;-73
2021/05/01 05:45:33;;;;;;;47.03;33.20;;;7.10;1.00;;;;;;5099718;27;20900;-72
2021/05/01 05:47:59;;;;;;;50.60;28.87;;;7.20;1.00;;;;;;5100205;27;20476;-72
2021/05/01 05:50:25;;;;;;;52.10;30.80;;;7.20;1.00;;;;;;5107536;27;20434;-72
2021/05/01 05:52:51;;;;;;;47.10;30.80;;;7.30;1.00;;;;;;5106392;27;20482;-72
2021/05/01 05:55:17;;;;;;;44.30;29.53;;;7.30;1.00;;;;;;5107071;27;20968;-72
2021/05/01 05:57:51;;;;;;;44.67;27.93;;;7.40;1.00;;;;;;5106058;27;20614;-72
2021/05/01 06:00:19;;;;;;;50.33;28.70;;;7.40;1.00;;;;;;5075524;27;20184;-72
2021/05/01 06:02:45;;;;;;;46.53;27.57;;;7.40;1.00;;;;;;5097238;27;20459;-72
2021/05/01 06:05:32;;;;;;;41.53;29.23;;;7.40;1.00;;;;;;5102804;27;20496;-72
2021/05/01 06:08:07;;;;;;;57.83;31.10;;;7.50;1.00;;;;;;5100774;27;20480;-72
2021/05/01 06:10:34;;;;;;;49.23;29.73;;;7.60;1.00;;;;;;5083498;27;20446;-72
2021/05/01 06:13:03;;;;;;;44.50;30.20;;;7.60;1.00;;;;;;5106541;27;20550;-72
2021/05/01 06:15:29;;;;;;;58.60;34.37;;;7.80;1.00;;;;;;5100948;27;20442;-72
2021/05/01 06:17:59;;;;;;;50.60;31.20;;;7.60;1.00;;;;;;5096611;27;20453;-71
2021/05/01 06:20:26;;;;;;;56.00;32.13;;;7.60;1.00;;;;;;5102620;27;20852;-73
2021/05/01 06:22:53;;;;;;;64.17;33.80;;;7.60;1.00;;;;;;5100462;27;20587;-73
2021/05/01 06:25:19;;;;;;;50.70;30.97;;;7.50;1.00;;;;;;5101613;27;20898;-73
2021/05/01 06:27:45;;;;;;;52.03;31.67;;;7.40;1.00;;;;;;5102984;27;20542;-72
2021/05/01 06:30:12;;;;;;;46.53;32.17;;;7.50;1.00;;;;;;5100894;27;20874;-72
2021/05/01 06:32:38;;;;;;;50.97;30.73;;;7.50;1.00;;;;;;5108287;27;20441;-72
2021/05/01 06:35:06;;;;;;;58.63;31.40;;;7.60;1.00;;;;;;5101535;27;20453;-74
2021/05/01 06:37:32;;;;;;;50.93;32.00;;;7.60;1.00;;;;;;5100266;27;21029;-72
2021/05/01 06:40:06;;;;;;;53.63;29.23;;;7.80;1.00;;;;;;5078485;27;20461;-72
2021/05/01 06:42:35;;;;;;;42.43;28.80;;;7.70;1.00;;;;;;5101776;27;20445;-73
2021/05/01 06:45:03;;;;;;;45.57;27.50;;;7.80;1.00;;;;;;5099188;27;20570;-73
2021/05/01 06:47:41;;;;;;;41.33;24.67;;;7.90;1.00;;;;;;5100307;27;21180;-72
2021/05/01 06:50:14;;;;;;;41.53;24.40;;;7.90;1.00;;;;;;5077761;27;20442;-73
2021/05/01 06:52:45;;;;;;;39.67;24.67;;;8.00;1.00;;;;;;5101903;27;21237;-73
2021/05/01 06:55:12;;;;;;;33.63;21.87;;;8.10;1.00;;;;;;5109288;27;20470;-72
2021/05/01 06:57:52;;;;;;;42.53;25.47;;;8.20;1.00;;;;;;5085240;27;20520;-72
2021/05/01 07:00:23;;;;;;;41.33;26.40;;;8.10;1.00;;;;;;5098487;27;20441;-73
2021/05/01 07:02:53;;;;;;;39.40;23.93;;;8.10;1.00;;;;;;5102664;27;20451;-72
2021/05/01 07:05:23;;;;;;;39.07;26.20;;;7.90;1.00;;;;;;5106299;27;20434;-72
2021/05/01 07:07:49;;;;;;;34.50;23.47;;;7.80;1.00;;;;;;5107389;27;20462;-72
2021/05/01 07:10:17;;;;;;;32.07;21.70;;;7.80;1.00;;;;;;5107493;27;20464;-72
2021/05/01 07:12:47;;;;;;;35.10;22.30;;;7.70;1.00;;;;;;5105685;27;20446;-71
2021/05/01 07:15:17;;;;;;;37.47;23.83;;;7.80;1.00;;;;;;5106075;27;20435;-71
2021/05/01 07:17:45;;;;;;;42.03;26.00;;;8.00;1.00;;;;;;5113058;27;20440;-71
2021/05/01 07:20:13;;;;;;;39.57;26.60;;;8.30;1.00;;;;;;5101019;27;20445;-71
2021/05/01 07:22:40;;;;;;;41.03;26.23;;;8.30;1.00;;;;;;5107658;27;20454;-71
2021/05/01 07:25:09;;;;;;;42.67;26.27;;;8.50;1.00;;;;;;5100238;27;21255;-71
2021/05/01 07:27:47;;;;;;;31.97;24.37;;;8.50;1.00;;;;;;5099470;27;20541;-71
2021/05/01 07:30:14;;;;;;;45.83;26.50;;;8.70;1.00;;;;;;5101099;27;20536;-72
2021/05/01 07:32:41;;;;;;;42.37;27.60;;;8.60;1.00;;;;;;5104942;27;20545;-71
2021/05/01 07:35:08;;;;;;;39.27;25.70;;;8.80;1.00;;;;;;5101668;27;20791;-71
2021/05/01 07:37:38;;;;;;;39.87;25.13;;;8.80;1.00;;;;;;5107064;27;20531;-71
2021/05/01 07:40:07;;;;;;;35.60;25.30;;;8.70;1.00;;;;;;5095163;28;21080;-71
2021/05/01 07:42:42;;;;;;;31.70;20.47;;;8.50;1.00;;;;;;5110081;27;20431;-71
2021/05/01 07:45:11;;;;;;;33.70;20.70;;;8.40;1.00;;;;;;5103495;27;20583;-71
2021/05/01 07:47:37;;;;;;;29.23;20.53;;;8.50;1.00;;;;;;5105947;27;20479;-71
2021/05/01 07:50:04;;;;;;;31.90;20.17;;;8.60;1.00;;;;;;5111192;27;20476;-71
2021/05/01 07:52:31;;;;;;;28.97;20.70;;;8.90;1.00;;;;;;5102780;27;20461;-71
2021/05/01 07:54:58;;;;;;;28.90;18.97;;;9.10;1.00;;;;;;5102584;27;20442;-71
2021/05/01 07:57:24;;;;;;;33.87;20.23;;;9.10;1.00;;;;;;5103433;27;20484;-71
2021/05/01 07:59:50;;;;;;;27.77;20.47;;;9.30;1.00;;;;;;5105914;27;20446;-72
2021/05/01 08:02:15;;;;;;;32.40;21.17;;;9.40;1.00;;;;;;5101429;27;20473;-72
2021/05/01 08:04:42;;;;;;;28.80;19.50;;;9.70;1.00;;;;;;5101699;27;20181;-71
2021/05/01 08:07:07;;;;;;;24.63;19.23;;;9.90;1.00;;;;;;5105544;27;20458;-72
2021/05/01 08:09:33;;;;;;;26.83;17.27;;;9.90;1.00;;;;;;5080396;27;20833;-71
2021/05/01 08:11:59;;;;;;;30.83;19.17;;;9.40;1.00;;;;;;5109793;27;20189;-71
2021/05/01 08:14:25;;;;;;;24.93;18.33;;;9.10;1.00;;;;;;5103906;27;20338;-72
2021/05/01 08:16:51;;;;;;;25.00;19.03;;;9.20;1.00;;;;;;5104234;27;20442;-72
2021/05/01 08:19:17;;;;;;;29.47;20.63;;;9.30;1.00;;;;;;5103839;27;20457;-72
2021/05/01 08:21:43;;;;;;;27.17;20.57;;;9.60;1.00;;;;;;5110111;27;20207;-72
2021/05/01 08:24:08;;;;;;;34.67;21.30;;;9.70;1.00;;;;;;5101804;27;20368;-72
2021/05/01 08:26:34;;;;;;;20.30;17.80;;;9.80;1.00;;;;;;5108258;27;20221;-71
2021/05/01 08:29:02;;;;;;;18.33;15.30;;;9.80;1.00;;;;;;5107393;27;21063;-73
2021/05/01 08:31:28;;;;;;;19.87;16.23;;;9.60;1.00;;;;;;5111391;27;20178;-72
2021/05/01 08:33:54;;;;;;;22.60;15.73;;;9.40;1.00;;;;;;5105005;27;20928;-71
2021/05/01 08:36:20;;;;;;;23.87;14.93;;;9.40;1.00;;;;;;5107826;27;20184;-71
2021/05/01 08:38:49;;;;;;;20.37;16.53;;;9.40;1.00;;;;;;5109819;27;20200;-71
2021/05/01 08:41:17;;;;;;;18.47;14.20;;;9.60;1.00;;;;;;5089561;27;20260;-72
2021/05/01 08:43:42;;;;;;;22.57;14.67;;;9.80;1.00;;;;;;5108387;27;20855;-71
2021/05/01 08:46:14;;;;;;;17.93;13.03;;;9.80;1.00;;;;;;5105312;27;20215;-71
2021/05/01 08:48:49;;;;;;;15.33;12.50;;;9.70;1.00;;;;;;5106805;27;20244;-72
2021/05/01 08:51:16;;;;;;;16.67;12.80;;;9.90;1.00;;;;;;5107285;27;20440;-71
2021/05/01 08:53:42;;;;;;;14.73;12.20;;;9.90;1.00;;;;;;5101684;27;20465;-71
2021/05/01 08:56:08;;;;;;;14.90;11.73;;;9.80;1.00;;;;;;5103638;27;20479;-72
2021/05/01 08:58:34;;;;;;;16.03;11.20;;;9.70;1.00;;;;;;5104905;27;20578;-71
2021/05/01 09:01:00;;;;;;;17.10;10.40;;;9.70;1.00;;;;;;5114408;27;20870;-72
2021/05/01 09:03:26;;;;;;;14.20;10.70;;;9.50;1.00;;;;;;5103533;27;20644;-71
2021/05/01 09:05:55;;;;;;;13.60;9.90;;;9.60;1.00;;;;;;5102473;27;20448;-72
2021/05/01 09:08:22;;;;;;;18.53;12.23;;;9.90;1.00;;;;;;5102557;27;20467;-71
2021/05/01 09:10:50;;;;;;;26.40;11.33;;;10.30;1.00;;;;;;5103966;27;20557;-71
2021/05/01 09:13:30;;;;;;;14.20;11.80;;;10.50;1.00;;;;;;5102729;27;20986;-72
2021/05/01 09:16:04;;;;;;;13.93;10.63;;;10.80;1.00;;;;;;5085281;27;20484;-71
2021/05/01 09:19:02;;;;;;;15.10;10.07;;;10.70;1.00;;;;;;5100588;27;20447;-72
2021/05/01 09:21:30;;;;;;;14.03;11.07;;;10.60;1.00;;;;;;5052553;27;21448;-72
2021/05/01 09:23:57;;;;;;;11.77;9.23;;;10.30;1.00;;;;;;5104165;27;21952;-72
2021/05/01 09:26:40;;;;;;;13.27;11.00;;;10.20;1.00;;;;;;5105639;27;20498;-72
2021/05/01 09:29:07;;;;;;;12.20;8.60;;;10.40;1.00;;;;;;5081815;27;21043;-73
2021/05/01 09:31:45;;;;;;;10.40;9.30;;;10.70;1.00;;;;;;5080585;27;20469;-72
2021/05/01 09:34:11;;;;;;;11.93;10.17;;;10.80;1.00;;;;;;5093677;27;21740;-72
2021/05/01 09:36:39;;;;;;;10.20;8.33;;;11.00;1.00;;;;;;5094179;27;20480;-72
2021/05/01 09:39:07;;;;;;;13.87;8.90;;;11.40;1.00;;;;;;5097589;27;20465;-72
2021/05/01 09:41:41;;;;;;;14.60;9.03;;;11.60;1.00;;;;;;5098030;27;20524;-72
2021/05/01 09:44:12;;;;;;;12.93;8.67;;;11.60;1.00;;;;;;5094923;27;21038;-72
2021/05/01 09:46:38;;;;;;;14.80;9.03;;;11.60;1.00;;;;;;5097031;27;20469;-71
2021/05/01 09:49:05;;;;;;;12.13;9.00;;;11.40;1.00;;;;;;5091249;27;20469;-73
2021/05/01 09:51:33;;;;;;;13.47;9.33;;;11.30;1.00;;;;;;5092113;27;20181;-73
2021/05/01 09:53:59;;;;;;;8.50;7.60;;;11.20;1.00;;;;;;5096282;27;20454;-72
2021/05/01 09:56:29;;;;;;;10.13;8.40;;;11.10;1.00;;;;;;5101313;27;20454;-72
2021/05/01 09:58:55;;;;;;;11.63;9.30;;;11.00;1.00;;;;;;5093581;27;20476;-72
2021/05/01 10:01:21;;;;;;;11.40;10.03;;;11.20;1.00;;;;;;5099347;27;20456;-72
2021/05/01 10:03:47;;;;;;;11.40;9.50;;;11.20;1.00;;;;;;5102282;27;20971;-72
2021/05/01 10:06:18;;;;;;;13.33;10.13;;;10.90;1.00;;;;;;5097860;27;20188;-72
2021/05/01 10:08:53;;;;;;;13.40;8.93;;;10.70;1.00;;;;;;5103631;27;21249;-72
2021/05/01 10:11:27;;;;;;;13.03;9.73;;;10.60;1.00;;;;;;5104017;27;20445;-72
2021/05/01 10:13:55;;;;;;;12.40;10.40;;;10.50;1.00;;;;;;5102317;27;20451;-72
2021/05/01 10:16:22;;;;;;;11.63;9.40;;;10.80;1.00;;;;;;5084873;27;20437;-73
2021/05/01 10:19:30;;;;;;;13.57;9.10;;;11.20;1.00;;;;;;5080757;27;20448;-72
2021/05/01 10:21:55;;;;;;;12.20;9.60;;;11.60;1.00;;;;;;5098055;27;20447;-73
2021/05/01 10:24:41;;;;;;;9.57;8.47;;;11.70;1.00;;;;;;5101062;27;21105;-72
2021/05/01 10:27:07;;;;;;;10.83;9.33;;;11.70;1.00;;;;;;5102575;27;20276;-72
2021/05/01 10:29:38;;;;;;;12.27;9.00;;;11.90;1.00;;;;;;5106009;27;20473;-72
2021/05/01 10:32:36;;;;;;;12.70;9.20;;;11.90;1.00;;;;;;5103186;27;20195;-72
2021/05/01 10:35:06;;;;;;;13.70;8.33;;;12.10;1.00;;;;;;5100518;27;20537;-72
2021/05/01 10:37:36;;;;;;;12.73;10.47;;;12.50;1.00;;;;;;5101171;27;20496;-73
2021/05/01 10:40:03;;;;;;;13.10;8.80;;;12.60;1.00;;;;;;5100429;27;20586;-72
2021/05/01 10:42:29;;;;;;;12.30;9.03;;;12.60;1.00;;;;;;5100594;27;21004;-72
2021/05/01 10:44:56;;;;;;;11.13;7.97;;;12.10;1.00;;;;;;5104151;27;20532;-72
2021/05/01 10:47:22;;;;;;;8.57;7.67;;;11.80;1.00;;;;;;5099690;27;20220;-72
2021/05/01 10:49:48;;;;;;;11.00;8.60;;;11.60;1.00;;;;;;5101593;27;20470;-72
2021/05/01 10:52:22;;;;;;;12.83;8.13;;;11.70;1.00;;;;;;5101241;27;20885;-72
2021/05/01 10:55:08;;;;;;;10.40;8.23;;;11.80;1.00;;;;;;5088570;27;20445;-72
2021/05/01 10:57:39;;;;;;;10.17;7.97;;;11.90;1.00;;;;;;5102273;27;21177;-72
2021/05/01 11:00:12;;;;;;;9.63;8.10;;;12.10;1.00;;;;;;5102940;27;20450;-73
2021/05/01 11:02:42;;;;;;;13.10;8.40;;;12.30;1.00;;;;;;5099236;27;20526;-73
2021/05/01 11:05:10;;;;;;;13.90;8.97;;;12.60;1.00;;;;;;5104799;27;25849;-73
2021/05/01 11:07:48;;;;;;;9.00;8.03;;;12.90;1.00;;;;;;5101982;27;20518;-72
2021/05/01 11:10:17;;;;;;;8.40;7.60;;;13.10;1.00;;;;;;5082594;27;20540;-73
2021/05/01 11:12:51;;;;;;;9.17;8.27;;;13.40;1.00;;;;;;5104083;27;20576;-72
2021/05/01 11:15:21;;;;;;;10.73;8.50;;;13.20;1.00;;;;;;5103933;27;20454;-71
2021/05/01 11:18:05;;;;;;;9.80;8.80;;;13.00;1.00;;;;;;5085450;28;21176;-72
2021/05/01 11:20:34;;;;;;;8.80;7.37;;;13.10;1.00;;;;;;5104093;27;20445;-72
2021/05/01 11:23:04;;;;;;;9.07;8.10;;;13.40;1.00;;;;;;5104372;27;20465;-72
2021/05/01 11:25:30;;;;;;;9.50;8.50;;;13.90;1.00;;;;;;5086546;27;20455;-72
2021/05/01 11:27:57;;;;;;;12.27;8.90;;;14.10;1.00;;;;;;5104961;27;20434;-72
2021/05/01 11:30:25;;;;;;;10.90;8.30;;;14.00;1.00;;;;;;5107753;27;20440;-72
2021/05/01 11:32:54;;;;;;;9.90;8.30;;;13.60;1.00;;;;;;5104496;27;20440;-72
2021/05/01 11:35:23;;;;;;;7.50;6.80;;;13.00;1.00;;;;;;5109083;27;20488;-72
2021/05/01 11:37:51;;;;;;;8.97;7.23;;;12.40;1.00;;;;;;5114346;27;20453;-72
2021/05/01 11:40:21;;;;;;;8.27;7.47;;;12.10;1.00;;;;;;5109237;27;20464;-72
2021/05/01 11:42:48;;;;;;;8.17;6.60;;;12.30;1.00;;;;;;5098173;27;20483;-72
2021/05/01 11:45:28;;;;;;;8.90;7.33;;;12.50;1.00;;;;;;5102244;27;20462;-72
2021/05/01 11:48:01;;;;;;;12.00;7.73;;;12.60;1.00;;;;;;5099792;27;21462;-73
2021/05/01 11:50:27;;;;;;;8.77;7.20;;;12.30;1.00;;;;;;5099770;27;20461;-72
2021/05/01 11:53:09;;;;;;;8.30;7.10;;;12.20;1.00;;;;;;5097623;27;20579;-72
2021/05/01 11:55:49;;;;;;;7.57;6.80;;;12.20;1.00;;;;;;5101866;27;20525;-72
2021/05/01 11:58:32;;;;;;;9.27;7.80;;;12.70;1.00;;;;;;5104814;27;20521;-72
2021/05/01 12:01:19;;;;;;;11.40;6.33;;;13.30;1.00;;;;;;5100683;27;20449;-72
2021/05/01 12:04:02;;;;;;;10.40;7.93;;;13.60;1.00;;;;;;5113897;27;20455;-72
2021/05/01 12:06:45;;;;;;;12.33;8.97;;;13.80;1.00;;;;;;5088940;27;20444;-72
2021/05/01 12:09:17;;;;;;;9.60;8.60;;;14.10;1.00;;;;;;5110859;27;20470;-71
2021/05/01 12:11:47;;;;;;;10.00;7.40;;;14.10;1.00;;;;;;5103146;27;20438;-72
2021/05/01 12:14:16;;;;;;;8.90;6.90;;;14.10;1.00;;;;;;5111235;27;21254;-72
2021/05/01 12:16:44;;;;;;;9.53;7.77;;;14.20;1.00;;;;;;5114743;27;20437;-72
2021/05/01 12:19:26;;;;;;;10.33;7.90;;;13.90;1.00;;;;;;5109862;27;20449;-72
2021/05/01 12:21:53;;;;;;;7.43;6.70;;;13.70;1.00;;;;;;5106762;27;20533;-72
2021/05/01 12:24:23;;;;;;;10.93;8.17;;;13.30;1.00;;;;;;5105143;27;20461;-71
2021/05/01 12:26:49;;;;;;;7.93;7.13;;;13.40;1.00;;;;;;5108730;27;20939;-71
2021/05/01 12:29:18;;;;;;;8.40;6.87;;;13.40;1.00;;;;;;5101391;27;20530;-71
2021/05/01 12:31:49;;;;;;;8.90;6.10;;;13.20;1.00;;;;;;5101758;27;20663;-71
2021/05/01 12:34:15;;;;;;;8.37;6.43;;;12.90;1.00;;;;;;5102817;27;20449;-71
2021/05/01 12:36:43;;;;;;;6.63;5.93;;;12.80;1.00;;;;;;5091617;27;21050;-71
2021/05/01 12:39:10;;;;;;;10.43;6.60;;;12.80;1.00;;;;;;5089001;27;20543;-72
2021/05/01 12:41:49;;;;;;;6.00;5.33;;;12.80;1.00;;;;;;5105547;27;20485;-72
2021/05/01 12:44:35;;;;;;;7.47;6.43;;;12.80;1.00;;;;;;5111121;27;20434;-71
2021/05/01 12:47:02;;;;;;;7.30;6.00;;;12.70;1.00;;;;;;5109780;27;20482;-72
2021/05/01 12:49:31;;;;;;;6.90;5.47;;;12.60;1.00;;;;;;5108353;27;20564;-71
2021/05/01 12:52:00;;;;;;;6.77;6.17;;;12.80;1.00;;;;;;5088551;27;20537;-72